createdAt,value
2023-03-08T00:01:41.808Z,3.33
2023-03-08T00:06:33.940Z,2.70
2023-03-08T00:11:26.272Z,2.30
2023-03-08T00:16:18.692Z,2.03
2023-03-08T00:21:16.526Z,1.87
2023-03-08T00:26:09.336Z,1.77
2023-03-08T00:31:10.694Z,1.73
2023-03-08T00:36:06.864Z,1.40
2023-03-08T00:40:59.466Z,1.30
2023-03-08T00:45:53.113Z,1.50
2023-03-08T00:50:47.428Z,1.93
2023-03-08T00:55:39.573Z,2.00
2023-03-08T01:00:31.862Z,2.10
2023-03-08T01:05:24.727Z,2.47
2023-03-08T01:10:16.915Z,2.93
2023-03-08T01:15:09.351Z,3.00
2023-03-08T01:20:01.354Z,3.37
2023-03-08T01:24:53.371Z,3.53
2023-03-08T01:29:45.457Z,3.57
2023-03-08T01:34:38.321Z,4.10
2023-03-08T01:39:30.490Z,4.17
2023-03-08T01:44:25.300Z,3.87
2023-03-08T01:49:31.884Z,2.67
2023-03-08T01:54:33.089Z,1.67
2023-03-08T01:59:25.485Z,1.97
2023-03-08T02:04:17.496Z,1.70
2023-03-08T02:15:11.236Z,1.60
2023-03-08T02:20:22.811Z,1.37
2023-03-08T02:25:16.811Z,1.53
2023-03-08T02:30:11.293Z,1.93
2023-03-08T02:35:05.224Z,2.67
2023-03-08T02:39:58.362Z,3.97
2023-03-08T02:44:50.432Z,2.70
2023-03-08T02:49:42.398Z,4.77
2023-03-08T02:54:35.289Z,3.63
2023-03-08T02:59:27.397Z,4.50
2023-03-08T03:04:20.892Z,2.90
2023-03-08T03:09:14.014Z,2.63
2023-03-08T03:14:06.337Z,3.00
2023-03-08T03:19:03.548Z,3.67
2023-03-08T03:23:55.899Z,2.80
2023-03-08T03:28:57.596Z,2.90
2023-03-08T03:33:53.501Z,4.00
2023-03-08T03:38:49.321Z,2.97
2023-03-08T03:43:41.718Z,2.60
2023-03-08T03:48:36.712Z,28.23
2023-03-08T03:53:31.564Z,28.03
2023-03-08T03:58:23.802Z,17.17
2023-03-08T04:03:16.378Z,9.67
2023-03-08T04:08:09.098Z,9.23
2023-03-08T04:13:04.968Z,7.37
2023-03-08T04:17:57.616Z,16.03
2023-03-08T04:22:51.765Z,7.60
2023-03-08T04:27:50.980Z,5.10
2023-03-08T04:32:45.184Z,8.23
2023-03-08T04:37:39.184Z,13.13
2023-03-08T04:42:36.840Z,10.80
2023-03-08T04:47:29.363Z,4.73
2023-03-08T04:52:21.595Z,5.87
2023-03-08T04:57:14.934Z,5.00
2023-03-08T05:02:07.671Z,9.63
2023-03-08T05:07:01.766Z,11.87
2023-03-08T05:11:59.350Z,10.67
2023-03-08T05:17:01.476Z,10.70
2023-03-08T05:21:55.311Z,15.87
2023-03-08T05:26:48.472Z,8.20
2023-03-08T05:31:45.565Z,7.27
2023-03-08T05:36:39.996Z,8.03
2023-03-08T05:41:33.344Z,7.83
2023-03-08T05:46:26.398Z,8.17
2023-03-08T05:51:19.370Z,8.17
2023-03-08T05:56:18.344Z,8.23
2023-03-08T06:01:28.550Z,8.97
2023-03-08T06:06:28.620Z,7.93
2023-03-08T06:11:25.062Z,7.97
2023-03-08T06:16:19.757Z,7.80
2023-03-08T06:21:15.993Z,6.90
2023-03-08T06:26:09.710Z,7.10
2023-03-08T06:31:04.213Z,6.63
2023-03-08T06:36:01.840Z,7.30
2023-03-08T06:40:54.556Z,8.10
2023-03-08T06:45:46.975Z,7.20
2023-03-08T06:50:39.597Z,7.17
2023-03-08T06:55:32.129Z,6.67
2023-03-08T07:00:25.550Z,6.03
2023-03-08T07:05:17.713Z,5.13
2023-03-08T07:10:11.443Z,6.47
2023-03-08T07:15:04.187Z,5.40
2023-03-08T07:19:57.490Z,4.23
2023-03-08T07:24:49.854Z,4.20
2023-03-08T07:29:42.099Z,4.83
2023-03-08T07:34:34.427Z,5.07
2023-03-08T07:39:26.551Z,4.03
2023-03-08T07:44:18.586Z,3.57
2023-03-08T07:49:11.795Z,3.90
2023-03-08T07:54:04.190Z,3.87
2023-03-08T07:58:57.572Z,3.40
2023-03-08T08:03:50.358Z,1.10
2023-03-08T08:08:42.506Z,2.40
2023-03-08T08:13:34.539Z,1.73
2023-03-08T08:18:27.031Z,2.30
2023-03-08T08:23:19.193Z,7.83
2023-03-08T08:28:11.257Z,9.03
2023-03-08T08:33:03.963Z,4.33
2023-03-08T08:37:55.978Z,6.87
2023-03-08T08:42:48.017Z,8.90
2023-03-08T08:47:40.067Z,10.27
2023-03-08T08:52:32.116Z,14.10
2023-03-08T08:57:24.242Z,6.87
2023-03-08T09:02:16.321Z,8.60
2023-03-08T09:07:08.406Z,9.33
2023-03-08T09:12:00.513Z,7.63
2023-03-08T09:16:54.044Z,8.17
2023-03-08T09:21:46.301Z,7.53
2023-03-08T09:26:38.432Z,7.73
2023-03-08T09:31:31.496Z,7.57
2023-03-08T09:36:24.868Z,7.87
2023-03-08T09:41:21.819Z,8.07
2023-03-08T09:46:27.314Z,7.53
2023-03-08T09:51:21.113Z,7.27
2023-03-08T09:56:24.897Z,7.33
2023-03-08T10:01:25.433Z,6.60
2023-03-08T10:06:48.230Z,7.53
2023-03-08T10:12:00.258Z,7.10
2023-03-08T10:16:59.667Z,6.47
2023-03-08T10:21:53.473Z,6.40
2023-03-08T10:26:45.676Z,5.67
2023-03-08T10:31:37.752Z,6.23
2023-03-08T10:36:30.051Z,6.27
2023-03-08T10:41:22.272Z,7.10
2023-03-08T10:46:25.704Z,7.60
2023-03-08T10:51:24.090Z,5.73
2023-03-08T10:56:38.423Z,4.03
2023-03-08T11:01:47.245Z,5.50
2023-03-08T11:06:39.683Z,4.37
2023-03-08T11:11:42.949Z,5.83
2023-03-08T11:16:59.859Z,4.03
2023-03-08T11:22:22.506Z,6.97
2023-03-08T11:27:45.421Z,6.53
2023-03-08T11:33:01.857Z,6.30
2023-03-08T11:37:58.512Z,5.70
2023-03-08T11:43:05.625Z,9.37
2023-03-08T11:48:17.438Z,6.47
2023-03-08T11:53:22.215Z,5.70
2023-03-08T11:58:40.478Z,5.40
2023-03-08T12:03:38.432Z,6.10
2023-03-08T12:08:44.055Z,6.63
2023-03-08T12:13:43.868Z,7.47
2023-03-08T12:18:36.360Z,8.90
2023-03-08T12:23:48.581Z,9.20
2023-03-08T12:28:47.125Z,10.30
2023-03-08T12:33:39.572Z,11.03
2023-03-08T12:38:37.156Z,11.07
2023-03-08T12:43:35.510Z,12.67
2023-03-08T12:48:35.780Z,12.73
2023-03-08T12:53:52.623Z,13.37
2023-03-08T12:59:03.127Z,14.40
2023-03-08T13:03:55.716Z,13.63
2023-03-08T13:08:54.289Z,14.73
2023-03-08T13:14:24.006Z,13.57
2023-03-08T13:19:16.061Z,12.83
2023-03-08T13:24:09.258Z,11.83
2023-03-08T13:29:02.620Z,12.33
2023-03-08T13:33:56.908Z,11.50
2023-03-08T13:39:17.758Z,9.77
2023-03-08T13:44:17.452Z,10.63
2023-03-08T13:49:27.430Z,9.60
2023-03-08T13:54:29.848Z,9.53
2023-03-08T13:59:22.062Z,8.90
2023-03-08T14:04:23.124Z,9.20
2023-03-08T14:09:15.446Z,7.30
2023-03-08T14:14:15.998Z,7.53
2023-03-08T14:19:28.317Z,7.60
2023-03-08T14:24:32.744Z,8.80
2023-03-08T14:29:35.843Z,9.33
2023-03-08T14:34:34.005Z,8.60
2023-03-08T14:39:28.344Z,9.33
2023-03-08T14:44:24.993Z,9.40
2023-03-08T14:49:22.885Z,8.47
2023-03-08T14:54:36.287Z,8.23
2023-03-08T14:59:28.438Z,8.13
2023-03-08T15:04:23.309Z,12.80
2023-03-08T15:09:17.866Z,9.73
2023-03-08T15:14:13.647Z,14.37
2023-03-08T15:19:05.857Z,7.00
2023-03-08T15:23:58.465Z,7.67
2023-03-08T15:28:50.591Z,6.50
2023-03-08T15:33:42.640Z,6.27
2023-03-08T15:38:34.863Z,6.53
2023-03-08T15:43:26.868Z,7.50
2023-03-08T15:48:19.893Z,7.50
2023-03-08T15:53:13.387Z,8.07
2023-03-08T15:58:10.741Z,7.20
2023-03-08T16:03:04.355Z,7.67
2023-03-08T16:07:59.464Z,6.53
2023-03-08T16:12:51.649Z,7.43
2023-03-08T16:17:44.284Z,7.97
2023-03-08T16:22:36.482Z,8.87
2023-03-08T16:27:31.273Z,8.70
2023-03-08T16:32:23.456Z,14.17
2023-03-08T16:37:15.460Z,11.33
2023-03-08T16:42:14.126Z,9.50
2023-03-08T16:47:07.229Z,10.73
2023-03-08T16:51:59.309Z,9.97
2023-03-08T16:56:51.322Z,11.13
2023-03-08T17:01:44.076Z,10.60
2023-03-08T17:06:36.057Z,10.83
2023-03-08T17:11:31.380Z,10.73
2023-03-08T17:16:26.161Z,11.30
2023-03-08T17:21:19.945Z,12.23
2023-03-08T17:26:13.425Z,12.73
2023-03-08T17:31:10.058Z,15.97
2023-03-08T17:36:02.260Z,19.10
2023-03-08T17:40:54.499Z,13.03
2023-03-08T17:46:00.639Z,13.37
2023-03-08T17:50:52.708Z,11.57
2023-03-08T17:55:45.020Z,13.30
2023-03-08T18:00:37.640Z,14.13
2023-03-08T18:05:29.766Z,13.40
2023-03-08T18:10:22.017Z,17.93
2023-03-08T18:15:14.515Z,17.23
2023-03-08T18:20:07.949Z,14.43
2023-03-08T18:24:59.934Z,16.37
2023-03-08T18:29:51.933Z,14.07
2023-03-08T18:34:44.065Z,15.00
2023-03-08T18:39:36.066Z,28.73
2023-03-08T18:44:28.516Z,15.53
2023-03-08T18:49:20.894Z,19.80
2023-03-08T18:54:16.021Z,18.70
2023-03-08T18:59:11.092Z,16.53
2023-03-08T19:04:06.180Z,16.30
2023-03-08T19:08:58.235Z,15.97
2023-03-08T19:13:50.659Z,17.20
2023-03-08T19:18:42.794Z,17.90
2023-03-08T19:23:34.855Z,14.97
2023-03-08T19:28:27.340Z,15.53
2023-03-08T19:33:30.341Z,13.90
2023-03-08T19:38:23.783Z,14.63
2023-03-08T19:43:15.770Z,15.07
2023-03-08T19:48:07.821Z,16.33
2023-03-08T19:53:03.199Z,16.10
2023-03-08T19:57:55.429Z,15.57
2023-03-08T20:02:47.881Z,19.20
2023-03-08T20:07:40.268Z,17.17
2023-03-08T20:12:33.090Z,17.50
2023-03-08T20:17:27.945Z,17.13
2023-03-08T20:22:20.453Z,16.20
2023-03-08T20:27:13.322Z,16.57
2023-03-08T20:32:05.958Z,15.43
2023-03-08T20:36:58.007Z,15.20
2023-03-08T20:41:50.144Z,15.10
2023-03-08T20:46:42.160Z,15.23
2023-03-08T20:51:34.223Z,15.20
2023-03-08T20:56:26.669Z,14.30
2023-03-08T21:01:31.536Z,13.40
2023-03-08T21:06:27.576Z,14.67
2023-03-08T21:11:20.790Z,16.97
2023-03-08T21:16:15.756Z,17.73
2023-03-08T21:21:07.855Z,15.63
2023-03-08T21:26:01.104Z,16.53
2023-03-08T21:30:53.170Z,31.17
2023-03-08T21:35:45.291Z,18.00
2023-03-08T21:40:39.034Z,18.60
2023-03-08T21:45:31.340Z,21.50
2023-03-08T21:50:23.473Z,20.70
2023-03-08T21:55:19.475Z,17.50
2023-03-08T22:00:12.897Z,21.77
2023-03-08T22:05:05.190Z,37.50
2023-03-08T22:09:57.224Z,20.07
2023-03-08T22:14:49.327Z,18.77
2023-03-08T22:19:41.289Z,17.87
2023-03-08T22:24:33.334Z,16.97
2023-03-08T22:29:25.366Z,17.40
2023-03-08T22:34:17.417Z,16.77
2023-03-08T22:39:12.787Z,17.10
2023-03-08T22:44:06.665Z,17.97
2023-03-08T22:48:59.347Z,17.63
2023-03-08T22:53:51.675Z,18.27
2023-03-08T22:58:43.899Z,20.10
2023-03-08T23:03:35.920Z,18.53
2023-03-08T23:08:29.037Z,18.83
2023-03-08T23:13:33.117Z,17.57
2023-03-08T23:18:26.123Z,18.10
2023-03-08T23:23:18.254Z,19.53
2023-03-08T23:28:11.010Z,18.77
2023-03-08T23:33:03.042Z,26.07
2023-03-08T23:37:55.033Z,55.73
2023-03-08T23:42:47.015Z,20.30
2023-03-08T23:47:39.058Z,127.80
2023-03-08T23:52:31.080Z,85.93
2023-03-08T23:57:23.106Z,22.50
